Nearby METAR Reports

 

EGFF - Cardiff-Wales Ar, United Kingdom
Distance from station: SW 17km
Updated: 23/04/2018 11:50
Clear
Clear
 Wind from W
Wind: W 30 km/h
Temperature: 11°C
Dew Point: 8°C
Humidity: 82%
Barometer: 1017 hPa
Clouds: Clear
Visibility: 10 km
2018/04/23 10:50 EGFF 231050Z AUTO 26016KT 9999 NCD 11/08 Q1017
EGDX - St Athan Raf, United Kingdom
Distance from station: SW 20km
Updated: 23/04/2018 11:50
Mostly cloudy
Mostly cloudy
 Wind from W
Wind: W 30 km/h
Temperature: 12°C
Dew Point: 8°C
Humidity: 77%
Barometer: 1017 hPa
Clouds: Mostly cloudy
Visibility: 10 km
Cloud details: Few Clouds 335 m
Mostly cloudy 975 m
2018/04/23 10:50 EGDX 231050Z 26016KT 9999 FEW011 BKN032 12/08 Q1017 BLU
 
EGGD - Bristol/Lulsgate, United Kingdom
Distance from station: ESE 37km
Updated: 23/04/2018 11:50
Few Clouds
Few Clouds
 Wind from WSW
Wind: WSW 33 km/h
Temperature: 12°C
Dew Point: 5°C
Humidity: 63%
Barometer: 1017 hPa
Clouds: Few Clouds
Visibility: 10 km
Cloud details: Few Clouds 792 m
2018/04/23 10:50 EGGD 231050Z AUTO 25018KT 9999 FEW026 12/05 Q1017
EGDY - Yeovilton (navy), United Kingdom
Distance from station: SE 69km
Updated: 23/04/2018 11:50
Partly cloudy
Partly cloudy
 Wind from W
Wind: W 19 km/h
Temperature: 13°C
Dew Point: 7°C
Humidity: 67%
Barometer: 1018 hPa
Clouds: Partly cloudy
Visibility: 10 km
Cloud details: Mostly cloudy 914 m
Partly cloudy 1219 m
2018/04/23 10:50 EGDY 231050Z 26010KT 9999 BKN030 SCT040 13/07 Q1018 BLU NOSIG